Time;durP1;ratioP1;P1;durP2;ratioP2;P2;SDS_P1;SDS_P2;PMS_P1;PMS_P2;Temp;Humidity;BMP_temperature;BMP_pressure;BME280_temperature;BME280_humidity;BME280_pressure;Samples;Min_cycle;Max_cycle;Signal;HPM_P1;HPM_P2
2021/06/20 00:00:15;;;;;;;68.72;33.72;;;;;;;;;;5092865;28;20102;-67
2021/06/20 00:02:42;;;;;;;59.40;32.17;;;;;;;;;;5101406;28;20027;-66
2021/06/20 00:05:10;;;;;;;50.22;30.92;;;;;;;;;;5098327;28;20067;-66
2021/06/20 00:07:37;;;;;;;61.15;31.55;;;;;;;;;;5105894;28;20526;-66
2021/06/20 00:10:05;;;;;;;67.90;29.92;;;;;;;;;;5095969;28;20077;-66
2021/06/20 00:12:31;;;;;;;50.13;29.73;;;;;;;;;;5104896;28;20037;-66
2021/06/20 00:14:57;;;;;;;56.67;29.30;;;;;;;;;;5092142;28;20036;-66
2021/06/20 00:17:23;;;;;;;50.25;29.40;;;;;;;;;;5098126;28;20039;-65
2021/06/20 00:19:49;;;;;;;57.78;31.35;;;;;;;;;;5096558;28;20089;-65
2021/06/20 00:22:15;;;;;;;130.98;37.95;;;;;;;;;;5097818;28;20501;-64
2021/06/20 00:24:42;;;;;;;52.05;28.10;;;;;;;;;;5100829;28;20040;-64
2021/06/20 00:27:08;;;;;;;41.85;24.95;;;;;;;;;;5090670;28;20484;-65
2021/06/20 00:29:34;;;;;;;46.85;28.20;;;;;;;;;;5096089;28;20044;-65
2021/06/20 00:32:01;;;;;;;49.63;30.23;;;;;;;;;;5099218;28;20056;-65
2021/06/20 00:34:27;;;;;;;52.60;26.10;;;;;;;;;;5100297;28;20047;-65
2021/06/20 00:36:53;;;;;;;47.53;25.30;;;;;;;;;;5092688;27;20122;-66
2021/06/20 00:39:19;;;;;;;39.58;23.83;;;;;;;;;;5097884;28;20436;-66
2021/06/20 00:41:45;;;;;;;79.88;30.95;;;;;;;;;;5089568;28;20036;-65
2021/06/20 00:44:11;;;;;;;34.90;20.35;;;;;;;;;;5094001;28;20032;-66
2021/06/20 00:46:37;;;;;;;50.38;27.90;;;;;;;;;;5091462;28;20048;-67
2021/06/20 00:49:04;;;;;;;41.10;22.52;;;;;;;;;;5095851;28;20123;-66
2021/06/20 00:51:30;;;;;;;47.42;27.05;;;;;;;;;;5097355;28;20051;-66
2021/06/20 00:53:56;;;;;;;44.97;26.42;;;;;;;;;;5105373;28;20040;-67
2021/06/20 00:56:22;;;;;;;80.40;31.65;;;;;;;;;;5097507;28;20114;-66
2021/06/20 00:58:48;;;;;;;47.63;26.48;;;;;;;;;;5099412;28;20075;-66
2021/06/20 01:01:14;;;;;;;44.00;23.83;;;;;;;;;;5104768;28;20444;-66
2021/06/20 01:03:41;;;;;;;52.67;26.75;;;;;;;;;;5090260;28;20036;-65
2021/06/20 01:06:07;;;;;;;36.15;23.00;;;;;;;;;;5104034;27;20032;-66
2021/06/20 01:08:35;;;;;;;55.95;28.73;;;;;;;;;;5094963;28;20055;-65
2021/06/20 01:11:01;;;;;;;100.68;34.88;;;;;;;;;;5098043;28;20059;-65
2021/06/20 01:13:27;;;;;;;54.80;29.92;;;;;;;;;;5091083;28;20139;-65
2021/06/20 01:15:53;;;;;;;65.25;32.10;;;;;;;;;;5097264;28;20114;-64
2021/06/20 01:18:20;;;;;;;52.50;30.25;;;;;;;;;;5091809;28;20032;-65
2021/06/20 01:20:46;;;;;;;63.83;32.75;;;;;;;;;;5106117;28;20111;-65
2021/06/20 01:23:13;;;;;;;66.28;32.85;;;;;;;;;;5094487;28;20069;-65
2021/06/20 01:25:41;;;;;;;57.38;32.85;;;;;;;;;;5103715;28;20036;-64
2021/06/20 01:28:09;;;;;;;74.93;33.92;;;;;;;;;;5090755;28;20507;-64
2021/06/20 01:30:38;;;;;;;49.55;28.85;;;;;;;;;;5101864;28;20059;-64
2021/06/20 01:33:06;;;;;;;88.63;34.08;;;;;;;;;;5091762;28;23246;-64
2021/06/20 01:35:33;;;;;;;45.53;28.00;;;;;;;;;;5100561;27;20043;-64
2021/06/20 01:38:01;;;;;;;57.42;29.38;;;;;;;;;;5092922;28;20046;-64
2021/06/20 01:40:27;;;;;;;63.28;31.10;;;;;;;;;;5094505;28;20395;-64
2021/06/20 01:42:53;;;;;;;51.60;28.63;;;;;;;;;;5099548;28;20479;-65
2021/06/20 01:45:20;;;;;;;76.30;32.78;;;;;;;;;;5086379;28;20040;-65
2021/06/20 01:47:47;;;;;;;41.75;28.13;;;;;;;;;;5096006;28;20114;-65
2021/06/20 01:50:15;;;;;;;72.70;31.45;;;;;;;;;;5092285;28;20244;-64
2021/06/20 01:52:42;;;;;;;42.83;29.50;;;;;;;;;;5101422;28;20551;-65
2021/06/20 01:55:09;;;;;;;47.17;31.67;;;;;;;;;;5093657;28;20058;-64
2021/06/20 01:57:36;;;;;;;63.38;33.35;;;;;;;;;;5096090;28;20060;-65
2021/06/20 02:00:04;;;;;;;70.72;34.58;;;;;;;;;;5090662;28;20084;-65
2021/06/20 02:02:31;;;;;;;60.13;33.55;;;;;;;;;;5098041;28;20039;-64
2021/06/20 02:04:57;;;;;;;66.78;35.17;;;;;;;;;;5098074;27;20043;-64
2021/06/20 02:07:24;;;;;;;84.00;38.35;;;;;;;;;;5098842;28;20075;-64
2021/06/20 02:09:51;;;;;;;74.20;40.15;;;;;;;;;;5085681;28;20059;-64
2021/06/20 02:12:18;;;;;;;83.47;39.95;;;;;;;;;;5096506;28;20114;-64
2021/06/20 02:14:44;;;;;;;72.18;35.97;;;;;;;;;;5094544;28;20042;-64
2021/06/20 02:17:27;;;;;;;50.45;34.53;;;;;;;;;;5096264;27;20044;-65
2021/06/20 02:19:55;;;;;;;64.63;39.22;;;;;;;;;;5102307;28;20047;-65
2021/06/20 02:22:21;;;;;;;81.07;43.20;;;;;;;;;;5102012;28;20043;-65
2021/06/20 02:24:48;;;;;;;110.10;44.15;;;;;;;;;;5095563;28;20117;-65
2021/06/20 02:27:14;;;;;;;76.15;43.22;;;;;;;;;;5099518;28;20424;-65
2021/06/20 02:29:41;;;;;;;73.53;39.80;;;;;;;;;;5091422;28;20027;-65
2021/06/20 02:32:09;;;;;;;94.80;45.13;;;;;;;;;;5096908;28;20050;-65
2021/06/20 02:34:35;;;;;;;92.70;45.83;;;;;;;;;;5100469;28;20078;-65
2021/06/20 02:37:01;;;;;;;52.55;33.20;;;;;;;;;;5100047;28;20281;-66
2021/06/20 02:39:28;;;;;;;80.30;44.10;;;;;;;;;;5103725;28;20155;-65
2021/06/20 02:41:54;;;;;;;71.45;42.13;;;;;;;;;;5095082;28;20408;-65
2021/06/20 02:44:20;;;;;;;62.40;39.67;;;;;;;;;;5098567;28;20408;-65
2021/06/20 02:46:46;;;;;;;78.63;44.83;;;;;;;;;;5092405;28;20108;-65
2021/06/20 02:49:12;;;;;;;65.72;41.75;;;;;;;;;;5099233;28;20032;-65
2021/06/20 02:51:42;;;;;;;77.97;42.85;;;;;;;;;;5096596;28;20036;-65
2021/06/20 02:54:09;;;;;;;75.28;43.30;;;;;;;;;;5097237;28;20521;-65
2021/06/20 02:56:35;;;;;;;76.68;45.08;;;;;;;;;;5094658;28;20039;-65
2021/06/20 02:59:01;;;;;;;81.43;46.10;;;;;;;;;;5098106;28;20036;-65
2021/06/20 03:01:27;;;;;;;72.40;44.33;;;;;;;;;;5091910;28;20443;-65
2021/06/20 03:03:53;;;;;;;81.45;45.03;;;;;;;;;;5098299;28;20036;-65
2021/06/20 03:06:20;;;;;;;104.05;46.33;;;;;;;;;;5097516;27;20036;-66
2021/06/20 03:08:46;;;;;;;72.95;45.65;;;;;;;;;;5099038;28;20038;-65
2021/06/20 03:11:12;;;;;;;83.65;46.92;;;;;;;;;;5101625;28;20060;-65
2021/06/20 03:13:39;;;;;;;103.38;49.75;;;;;;;;;;5093136;28;20047;-65
2021/06/20 03:16:05;;;;;;;91.72;47.22;;;;;;;;;;5098437;28;20047;-65
2021/06/20 03:18:32;;;;;;;78.60;43.35;;;;;;;;;;5092031;28;20073;-65
2021/06/20 03:20:58;;;;;;;95.40;47.33;;;;;;;;;;5108816;27;20052;-66
2021/06/20 03:23:24;;;;;;;86.03;45.67;;;;;;;;;;5094438;28;20036;-66
2021/06/20 03:25:50;;;;;;;83.88;44.33;;;;;;;;;;5099789;28;20042;-66
2021/06/20 03:28:16;;;;;;;90.05;47.53;;;;;;;;;;5094692;28;20043;-65
2021/06/20 03:30:43;;;;;;;92.05;47.60;;;;;;;;;;5103679;28;20031;-66
2021/06/20 03:33:09;;;;;;;96.07;48.75;;;;;;;;;;5094737;28;20067;-66
2021/06/20 03:35:36;;;;;;;105.15;48.13;;;;;;;;;;5107960;28;20074;-66
2021/06/20 03:38:02;;;;;;;157.75;54.00;;;;;;;;;;5101447;28;20491;-66
2021/06/20 03:40:28;;;;;;;96.82;49.08;;;;;;;;;;5105804;28;20054;-66
2021/06/20 03:42:54;;;;;;;94.82;50.80;;;;;;;;;;5098383;28;20044;-65
2021/06/20 03:45:20;;;;;;;110.80;51.08;;;;;;;;;;5101583;28;20036;-65
2021/06/20 03:47:46;;;;;;;173.63;57.72;;;;;;;;;;5100003;28;20118;-65
2021/06/20 03:50:13;;;;;;;213.27;57.85;;;;;;;;;;5096643;27;20032;-66
2021/06/20 03:52:39;;;;;;;104.50;53.95;;;;;;;;;;5104820;28;20036;-66
2021/06/20 03:55:06;;;;;;;106.05;53.60;;;;;;;;;;5089908;28;20091;-65
2021/06/20 03:57:33;;;;;;;145.98;55.35;;;;;;;;;;5097718;28;20052;-65
2021/06/20 03:59:59;;;;;;;216.23;60.40;;;;;;;;;;5093541;28;20384;-65
2021/06/20 04:02:25;;;;;;;151.20;57.08;;;;;;;;;;5105495;28;20542;-65
2021/06/20 04:04:51;;;;;;;216.10;61.70;;;;;;;;;;5096629;28;20069;-65
2021/06/20 04:07:17;;;;;;;231.68;62.88;;;;;;;;;;5103722;28;20123;-65
2021/06/20 04:09:44;;;;;;;136.95;53.45;;;;;;;;;;5093483;28;20096;-65
2021/06/20 04:12:11;;;;;;;188.90;61.22;;;;;;;;;;5106036;28;20039;-65
2021/06/20 04:14:41;;;;;;;258.02;64.07;;;;;;;;;;5094330;28;20040;-65
2021/06/20 04:17:07;;;;;;;151.48;58.80;;;;;;;;;;5104049;28;20062;-65
2021/06/20 04:19:33;;;;;;;89.00;50.60;;;;;;;;;;5090693;28;20044;-65
2021/06/20 04:22:00;;;;;;;200.90;58.42;;;;;;;;;;5102004;27;20035;-65
2021/06/20 04:24:26;;;;;;;212.18;59.92;;;;;;;;;;5098288;28;20223;-65
2021/06/20 04:26:52;;;;;;;179.50;60.53;;;;;;;;;;5104665;28;20454;-65
2021/06/20 04:29:18;;;;;;;140.38;56.63;;;;;;;;;;5095282;28;20031;-65
2021/06/20 04:31:44;;;;;;;126.97;55.63;;;;;;;;;;5089179;28;20032;-65
2021/06/20 04:34:11;;;;;;;101.00;54.92;;;;;;;;;;5105367;28;20047;-65
2021/06/20 04:36:37;;;;;;;229.48;64.57;;;;;;;;;;5095469;28;20365;-65
2021/06/20 04:39:07;;;;;;;244.52;65.40;;;;;;;;;;5101441;28;20123;-65
2021/06/20 04:41:33;;;;;;;207.85;63.72;;;;;;;;;;5090603;28;20064;-65
2021/06/20 04:44:02;;;;;;;138.85;61.28;;;;;;;;;;5097546;28;20399;-65
2021/06/20 04:46:36;;;;;;;211.57;62.38;;;;;;;;;;5100645;28;20055;-65
2021/06/20 04:49:03;;;;;;;177.07;61.60;;;;;;;;;;5104782;28;20055;-65
2021/06/20 04:51:33;;;;;;;232.82;65.60;;;;;;;;;;5093926;28;20039;-65
2021/06/20 04:54:00;;;;;;;226.18;64.82;;;;;;;;;;5095131;28;20075;-65
2021/06/20 04:56:26;;;;;;;214.70;69.72;;;;;;;;;;5087958;28;20499;-65
2021/06/20 04:58:52;;;;;;;195.10;68.13;;;;;;;;;;5096880;28;20400;-65
2021/06/20 05:01:18;;;;;;;109.25;59.20;;;;;;;;;;5096692;28;20039;-65
2021/06/20 05:03:45;;;;;;;126.18;61.50;;;;;;;;;;5101215;28;20036;-66
2021/06/20 05:06:11;;;;;;;132.70;59.85;;;;;;;;;;5098585;28;20070;-65
2021/06/20 05:08:37;;;;;;;151.45;63.25;;;;;;;;;;5097301;28;20043;-65
2021/06/20 05:11:03;;;;;;;97.40;58.25;;;;;;;;;;5103029;28;20129;-65
2021/06/20 05:13:29;;;;;;;111.47;58.60;;;;;;;;;;5101064;28;20134;-65
2021/06/20 05:15:56;;;;;;;148.80;63.60;;;;;;;;;;5096565;28;20475;-65
2021/06/20 05:18:22;;;;;;;147.02;61.47;;;;;;;;;;5090250;28;20089;-65
2021/06/20 05:20:48;;;;;;;93.50;56.38;;;;;;;;;;5096606;28;20106;-65
2021/06/20 05:23:14;;;;;;;116.07;58.10;;;;;;;;;;5087715;28;20073;-65
2021/06/20 05:25:40;;;;;;;162.95;61.70;;;;;;;;;;5097271;28;20048;-65
2021/06/20 05:28:07;;;;;;;115.63;56.55;;;;;;;;;;5097614;28;20039;-65
2021/06/20 05:30:33;;;;;;;187.57;63.63;;;;;;;;;;5094383;28;20088;-65
2021/06/20 05:32:59;;;;;;;101.47;53.40;;;;;;;;;;5091694;28;20066;-65
2021/06/20 05:35:26;;;;;;;79.60;50.67;;;;;;;;;;5099044;28;20047;-65
2021/06/20 05:37:52;;;;;;;85.88;50.40;;;;;;;;;;5087677;28;20367;-65
2021/06/20 05:40:18;;;;;;;101.32;52.08;;;;;;;;;;5097232;27;20044;-65
2021/06/20 05:42:44;;;;;;;95.78;52.15;;;;;;;;;;5092799;28;20429;-65
2021/06/20 05:45:11;;;;;;;93.78;47.15;;;;;;;;;;5096206;28;20470;-65
2021/06/20 05:47:37;;;;;;;84.07;44.63;;;;;;;;;;5090291;28;20527;-65
2021/06/20 05:50:03;;;;;;;78.32;43.15;;;;;;;;;;5095032;28;20101;-65
2021/06/20 05:52:29;;;;;;;50.00;39.05;;;;;;;;;;5096962;28;20047;-65
2021/06/20 05:54:56;;;;;;;49.13;36.17;;;;;;;;;;5099695;28;20047;-65
2021/06/20 05:57:22;;;;;;;53.63;36.55;;;;;;;;;;5102861;28;20188;-65
2021/06/20 05:59:49;;;;;;;58.15;34.97;;;;;;;;;;5095076;28;20044;-65
2021/06/20 06:02:15;;;;;;;43.28;34.60;;;;;;;;;;5101584;28;20155;-65
2021/06/20 06:04:42;;;;;;;59.45;36.53;;;;;;;;;;5086816;28;20309;-65
2021/06/20 06:07:09;;;;;;;44.10;33.08;;;;;;;;;;5098433;28;20429;-65
2021/06/20 06:09:35;;;;;;;49.40;34.85;;;;;;;;;;5092901;28;20051;-65
2021/06/20 06:12:05;;;;;;;45.35;35.22;;;;;;;;;;5093524;28;20039;-65
2021/06/20 06:14:33;;;;;;;46.40;34.70;;;;;;;;;;5092865;28;20411;-65
2021/06/20 06:16:59;;;;;;;40.75;32.45;;;;;;;;;;5095978;28;20196;-65
2021/06/20 06:19:25;;;;;;;45.55;36.08;;;;;;;;;;5090795;28;20329;-65
2021/06/20 06:21:52;;;;;;;51.20;36.35;;;;;;;;;;5091582;28;20036;-65
2021/06/20 06:24:18;;;;;;;34.58;30.60;;;;;;;;;;5093437;28;20039;-65
2021/06/20 06:26:44;;;;;;;43.97;32.38;;;;;;;;;;5095544;28;20059;-65
2021/06/20 06:29:10;;;;;;;34.75;30.52;;;;;;;;;;5093518;28;20042;-65
2021/06/20 06:31:38;;;;;;;41.15;29.98;;;;;;;;;;5106711;28;20043;-65
2021/06/20 06:34:04;;;;;;;38.15;29.27;;;;;;;;;;5101265;28;20052;-65
2021/06/20 06:36:31;;;;;;;37.45;27.77;;;;;;;;;;5093604;28;20047;-65
2021/06/20 06:38:57;;;;;;;34.22;27.75;;;;;;;;;;5097354;28;20032;-65
2021/06/20 06:41:23;;;;;;;32.58;26.98;;;;;;;;;;5080441;28;20044;-65
2021/06/20 06:43:49;;;;;;;94.25;85.40;;;;;;;;;;5097071;28;20081;-65
2021/06/20 06:46:15;;;;;;;37.10;32.80;;;;;;;;;;5094900;28;20079;-65
2021/06/20 06:48:42;;;;;;;29.40;24.27;;;;;;;;;;5095924;28;20040;-65
2021/06/20 06:51:08;;;;;;;28.00;22.08;;;;;;;;;;5091786;28;20043;-65
2021/06/20 06:53:34;;;;;;;20.63;18.52;;;;;;;;;;5096058;28;20047;-65
2021/06/20 06:56:00;;;;;;;18.63;16.83;;;;;;;;;;5088293;28;20040;-65
2021/06/20 06:58:26;;;;;;;18.30;16.35;;;;;;;;;;5104263;28;20036;-65
2021/06/20 07:00:55;;;;;;;20.30;17.73;;;;;;;;;;5094702;28;20089;-65
2021/06/20 07:03:21;;;;;;;19.95;17.27;;;;;;;;;;5099741;28;20036;-65
2021/06/20 07:05:47;;;;;;;16.48;14.77;;;;;;;;;;5095984;28;20040;-65
2021/06/20 07:08:13;;;;;;;17.63;14.75;;;;;;;;;;5097693;28;20134;-65
2021/06/20 07:10:40;;;;;;;13.80;12.40;;;;;;;;;;5105602;28;20045;-65
2021/06/20 07:13:06;;;;;;;13.98;12.20;;;;;;;;;;5099028;28;20043;-66
2021/06/20 07:15:32;;;;;;;14.70;13.23;;;;;;;;;;5103192;28;20096;-66
2021/06/20 07:17:59;;;;;;;10.25;8.57;;;;;;;;;;5092979;28;20513;-65
2021/06/20 07:20:25;;;;;;;9.48;8.48;;;;;;;;;;5103274;28;20032;-65
2021/06/20 07:22:51;;;;;;;8.57;7.70;;;;;;;;;;5093945;28;20059;-65
2021/06/20 07:25:21;;;;;;;9.48;8.40;;;;;;;;;;5103440;28;20044;-65
2021/06/20 07:27:48;;;;;;;9.68;8.68;;;;;;;;;;5097107;28;20320;-65
2021/06/20 07:30:15;;;;;;;9.55;8.60;;;;;;;;;;5098991;28;20538;-65
2021/06/20 07:32:42;;;;;;;9.68;8.77;;;;;;;;;;5091877;28;20043;-65
2021/06/20 07:35:09;;;;;;;9.50;8.50;;;;;;;;;;5098625;28;20115;-65
2021/06/20 07:37:36;;;;;;;8.35;7.55;;;;;;;;;;5094522;28;20407;-65
2021/06/20 07:40:04;;;;;;;8.63;7.72;;;;;;;;;;5098302;28;20500;-66
2021/06/20 07:42:30;;;;;;;7.57;6.85;;;;;;;;;;5091369;28;20411;-66
2021/06/20 07:44:57;;;;;;;9.05;6.00;;;;;;;;;;5091105;28;20029;-66
2021/06/20 07:47:23;;;;;;;6.72;6.00;;;;;;;;;;5097358;28;20420;-66
2021/06/20 07:49:49;;;;;;;6.82;5.40;;;;;;;;;;5100868;28;20031;-66
2021/06/20 07:52:15;;;;;;;5.40;4.80;;;;;;;;;;5102453;28;20271;-66
2021/06/20 07:54:49;;;;;;;6.55;4.32;;;;;;;;;;5094259;28;20198;-66
2021/06/20 07:57:16;;;;;;;3.45;3.13;;;;;;;;;;5103448;28;20039;-67
2021/06/20 07:59:42;;;;;;;4.25;3.83;;;;;;;;;;5099400;28;20118;-67
2021/06/20 08:02:08;;;;;;;4.30;3.13;;;;;;;;;;5105666;28;20043;-67
2021/06/20 08:04:35;;;;;;;3.55;3.25;;;;;;;;;;5101911;28;20043;-67
2021/06/20 08:07:01;;;;;;;3.17;2.88;;;;;;;;;;5101106;27;20066;-67
2021/06/20 08:09:27;;;;;;;45.80;41.25;;;;;;;;;;5090686;27;20032;-67
2021/06/20 08:11:53;;;;;;;7.30;6.60;;;;;;;;;;5093536;28;20028;-67
2021/06/20 08:14:19;;;;;;;2.83;2.53;;;;;;;;;;5100024;28;20448;-67
2021/06/20 08:16:46;;;;;;;3.53;2.65;;;;;;;;;;5099184;28;20063;-67
2021/06/20 08:19:12;;;;;;;2.92;2.20;;;;;;;;;;5090584;28;20035;-67
2021/06/20 08:21:39;;;;;;;3.35;2.25;;;;;;;;;;5091969;28;20046;-67
2021/06/20 08:24:06;;;;;;;2.38;2.15;;;;;;;;;;5092971;27;20437;-67
2021/06/20 08:26:32;;;;;;;3.08;1.88;;;;;;;;;;5100128;28;20469;-67
2021/06/20 08:28:58;;;;;;;2.30;1.80;;;;;;;;;;5089515;28;20398;-68
2021/06/20 08:31:24;;;;;;;2.13;1.65;;;;;;;;;;5095436;28;20048;-67
2021/06/20 08:33:50;;;;;;;2.63;2.10;;;;;;;;;;5097183;28;20046;-68
2021/06/20 08:36:17;;;;;;;4.07;2.90;;;;;;;;;;5091266;28;20122;-68
2021/06/20 08:38:43;;;;;;;2.75;1.67;;;;;;;;;;5092565;28;20040;-67
2021/06/20 08:41:13;;;;;;;5.60;3.95;;;;;;;;;;5088641;28;20036;-68
2021/06/20 08:43:39;;;;;;;2.30;1.80;;;;;;;;;;5096916;28;20058;-68
2021/06/20 08:46:05;;;;;;;1.90;1.10;;;;;;;;;;5093331;28;20040;-68
2021/06/20 08:48:33;;;;;;;1.85;1.13;;;;;;;;;;5091052;28;20122;-69
2021/06/20 08:50:59;;;;;;;2.38;1.23;;;;;;;;;;5098218;28;20048;-69
2021/06/20 08:53:25;;;;;;;3.60;1.83;;;;;;;;;;5102667;27;20064;-69
2021/06/20 08:55:52;;;;;;;11.70;10.57;;;;;;;;;;5095004;28;20124;-67
2021/06/20 08:58:20;;;;;;;3.88;2.33;;;;;;;;;;5103409;28;20058;-68
2021/06/20 09:00:47;;;;;;;2.78;2.22;;;;;;;;;;5094434;28;20035;-69
2021/06/20 09:03:13;;;;;;;3.60;2.28;;;;;;;;;;5099416;28;20036;-69
2021/06/20 09:05:39;;;;;;;2.38;2.08;;;;;;;;;;5093066;28;20089;-69
2021/06/20 09:08:15;;;;;;;2.08;1.70;;;;;;;;;;5096985;28;20039;-69
2021/06/20 09:10:41;;;;;;;3.55;2.33;;;;;;;;;;5091310;28;20429;-66
2021/06/20 09:13:08;;;;;;;2.88;1.98;;;;;;;;;;5109547;27;20036;-68
2021/06/20 09:15:34;;;;;;;38.30;32.80;;;;;;;;;;5093206;28;20524;-67
2021/06/20 09:18:04;;;;;;;4.18;3.35;;;;;;;;;;5093340;28;20063;-67
2021/06/20 09:20:37;;;;;;;2.67;1.85;;;;;;;;;;5096439;28;20039;-68
2021/06/20 09:23:06;;;;;;;3.50;1.83;;;;;;;;;;5096886;27;20032;-68
2021/06/20 09:25:32;;;;;;;4.57;1.90;;;;;;;;;;5096270;27;20071;-68
2021/06/20 09:28:00;;;;;;;4.00;2.00;;;;;;;;;;5094409;28;20032;-68
2021/06/20 09:30:28;;;;;;;2.30;1.50;;;;;;;;;;5099278;27;20055;-68
2021/06/20 09:32:59;;;;;;;2.22;1.17;;;;;;;;;;5094992;28;20472;-68
2021/06/20 09:35:27;;;;;;;3.00;2.30;;;;;;;;;;5103283;28;20047;-68
2021/06/20 09:37:54;;;;;;;7.18;4.43;;;;;;;;;;5095454;27;20059;-68
2021/06/20 09:40:21;;;;;;;3.30;1.75;;;;;;;;;;5102766;28;20074;-68
2021/06/20 09:42:49;;;;;;;1.92;1.35;;;;;;;;;;5102298;27;20050;-68
2021/06/20 09:45:25;;;;;;;4.20;1.38;;;;;;;;;;5102440;28;20364;-69
2021/06/20 09:47:51;;;;;;;2.15;1.05;;;;;;;;;;5091034;28;20587;-67
2021/06/20 09:50:32;;;;;;;2.90;1.52;;;;;;;;;;5103802;27;20480;-68
2021/06/20 09:52:59;;;;;;;1.30;0.73;;;;;;;;;;5094130;27;20047;-68
2021/06/20 09:55:25;;;;;;;3.30;0.82;;;;;;;;;;5093896;28;20055;-68
2021/06/20 09:57:52;;;;;;;3.58;0.70;;;;;;;;;;5090777;28;20040;-68
2021/06/20 10:00:18;;;;;;;2.40;0.90;;;;;;;;;;5098010;28;20115;-68
2021/06/20 10:02:46;;;;;;;1.85;0.82;;;;;;;;;;5089479;28;20445;-68
2021/06/20 10:05:12;;;;;;;1.52;0.90;;;;;;;;;;5094270;27;20049;-67
2021/06/20 10:07:39;;;;;;;2.33;0.90;;;;;;;;;;5091044;27;20048;-69
2021/06/20 10:10:07;;;;;;;3.00;1.40;;;;;;;;;;5099414;28;20077;-68
2021/06/20 10:12:34;;;;;;;1.48;0.65;;;;;;;;;;5096572;27;20043;-68
2021/06/20 10:15:01;;;;;;;2.35;0.70;;;;;;;;;;5095841;28;20479;-68
2021/06/20 10:17:27;;;;;;;3.05;0.60;;;;;;;;;;5093817;28;20105;-68
2021/06/20 10:19:56;;;;;;;2.55;0.60;;;;;;;;;;5094786;27;20028;-68
2021/06/20 10:22:22;;;;;;;1.85;0.50;;;;;;;;;;5104163;27;20031;-68
2021/06/20 10:24:53;;;;;;;2.83;0.60;;;;;;;;;;5096837;28;20481;-68
2021/06/20 10:27:37;;;;;;;1.95;0.40;;;;;;;;;;5100884;28;20471;-68
2021/06/20 10:30:06;;;;;;;2.40;0.50;;;;;;;;;;5091363;28;20115;-68
2021/06/20 10:32:37;;;;;;;2.25;0.40;;;;;;;;;;5099929;28;20510;-68
2021/06/20 10:35:04;;;;;;;0.82;0.40;;;;;;;;;;5091661;27;20176;-68
2021/06/20 10:37:35;;;;;;;2.10;0.50;;;;;;;;;;5102105;28;20043;-68
2021/06/20 10:40:02;;;;;;;1.73;0.40;;;;;;;;;;5091835;28;20471;-68
2021/06/20 10:42:38;;;;;;;8.05;7.25;;;;;;;;;;5095325;28;20044;-67
2021/06/20 10:45:06;;;;;;;0.93;0.30;;;;;;;;;;5095005;28;20035;-68
2021/06/20 10:47:37;;;;;;;2.20;0.25;;;;;;;;;;5100447;28;20040;-67
2021/06/20 10:50:10;;;;;;;1.48;0.43;;;;;;;;;;5096983;28;20040;-68
2021/06/20 10:52:37;;;;;;;0.63;0.17;;;;;;;;;;5098900;28;20344;-68
2021/06/20 10:55:10;;;;;;;0.82;0.20;;;;;;;;;;5091355;28;20111;-68
2021/06/20 10:57:52;;;;;;;1.33;0.20;;;;;;;;;;5100491;28;20039;-68
2021/06/20 11:00:45;;;;;;;1.40;0.20;;;;;;;;;;5086048;28;20123;-68
2021/06/20 11:03:12;;;;;;;0.65;0.13;;;;;;;;;;5085082;28;20036;-68
2021/06/20 11:05:57;;;;;;;0.50;0.10;;;;;;;;;;5089363;28;20116;-68
2021/06/20 11:08:26;;;;;;;1.48;0.10;;;;;;;;;;5101460;28;20039;-68
2021/06/20 11:11:11;;;;;;;0.98;0.10;;;;;;;;;;5097574;28;20051;-68
2021/06/20 11:13:39;;;;;;;2.60;0.20;;;;;;;;;;5092118;28;20051;-68
2021/06/20 11:16:06;;;;;;;1.15;0.20;;;;;;;;;;5091734;28;20521;-68
2021/06/20 11:18:32;;;;;;;0.40;0.08;;;;;;;;;;5094799;28;20064;-69
2021/06/20 11:20:59;;;;;;;2.05;0.20;;;;;;;;;;5088542;28;20100;-69
2021/06/20 11:23:29;;;;;;;1.70;0.20;;;;;;;;;;5089878;28;20051;-68
2021/06/20 11:25:56;;;;;;;1.80;0.40;;;;;;;;;;5092152;28;20400;-69
2021/06/20 11:28:22;;;;;;;2.88;0.40;;;;;;;;;;5095171;28;20535;-69
2021/06/20 11:30:49;;;;;;;0.90;0.10;;;;;;;;;;5092182;28;20526;-68
2021/06/20 11:33:26;;;;;;;2.03;0.20;;;;;;;;;;5092057;28;20047;-68
2021/06/20 11:35:52;;;;;;;82.68;75.15;;;;;;;;;;5104421;28;20036;-68
2021/06/20 11:38:32;;;;;;;8.25;7.00;;;;;;;;;;5093656;28;20391;-68
2021/06/20 11:41:18;;;;;;;2.20;0.70;;;;;;;;;;5097133;28;20038;-68
2021/06/20 11:43:52;;;;;;;3.25;1.13;;;;;;;;;;5094367;28;20044;-68
2021/06/20 11:46:19;;;;;;;4.07;1.95;;;;;;;;;;5111629;28;20109;-68
2021/06/20 11:48:52;;;;;;;43.42;37.55;;;;;;;;;;5093239;28;20051;-67
2021/06/20 11:51:31;;;;;;;3.42;2.03;;;;;;;;;;5100832;28;20044;-68
2021/06/20 11:54:04;;;;;;;2.00;0.30;;;;;;;;;;5091456;28;20066;-68
2021/06/20 11:56:30;;;;;;;1.08;0.30;;;;;;;;;;5102639;28;20036;-68
2021/06/20 11:58:57;;;;;;;2.65;0.20;;;;;;;;;;5100294;28;20408;-67
2021/06/20 12:01:23;;;;;;;1.25;0.20;;;;;;;;;;5106449;28;20114;-67
2021/06/20 12:03:49;;;;;;;1.67;0.40;;;;;;;;;;5098642;28;20040;-68
2021/06/20 12:06:15;;;;;;;2.35;0.30;;;;;;;;;;5096936;28;20100;-69
2021/06/20 12:08:41;;;;;;;1.20;0.20;;;;;;;;;;5092220;28;20064;-68
2021/06/20 12:11:08;;;;;;;1.00;0.22;;;;;;;;;;5096162;28;20035;-68
2021/06/20 12:13:40;;;;;;;1.70;0.20;;;;;;;;;;5095972;28;20074;-68
2021/06/20 12:16:07;;;;;;;1.38;0.30;;;;;;;;;;5098165;28;20067;-68
2021/06/20 12:18:33;;;;;;;3.25;0.30;;;;;;;;;;5090464;28;20090;-67
2021/06/20 12:20:59;;;;;;;0.88;0.30;;;;;;;;;;5098270;28;20108;-69
2021/06/20 12:23:27;;;;;;;0.52;0.30;;;;;;;;;;5094984;28;20035;-67
2021/06/20 12:25:53;;;;;;;1.13;0.50;;;;;;;;;;5097695;28;20480;-67
2021/06/20 12:28:20;;;;;;;1.35;0.50;;;;;;;;;;5089742;28;20051;-67
2021/06/20 12:30:48;;;;;;;1.90;0.52;;;;;;;;;;5109614;28;20109;-67
2021/06/20 12:33:15;;;;;;;2.55;0.52;;;;;;;;;;5090419;28;20040;-67
2021/06/20 12:35:45;;;;;;;2.03;0.60;;;;;;;;;;5095991;28;20472;-68
2021/06/20 12:38:21;;;;;;;1.27;0.60;;;;;;;;;;5096680;28;20067;-68
2021/06/20 12:40:48;;;;;;;0.82;0.55;;;;;;;;;;5091580;28;20108;-68
2021/06/20 12:43:15;;;;;;;3.42;0.77;;;;;;;;;;5095503;28;20471;-68
2021/06/20 12:45:42;;;;;;;1.52;0.80;;;;;;;;;;5091355;28;20416;-68
2021/06/20 12:48:14;;;;;;;3.50;0.90;;;;;;;;;;5093537;28;20090;-68
2021/06/20 12:50:43;;;;;;;1.33;0.50;;;;;;;;;;5091386;28;20507;-68
2021/06/20 12:53:09;;;;;;;2.08;0.88;;;;;;;;;;5106496;28;20078;-68
2021/06/20 12:55:35;;;;;;;3.50;0.80;;;;;;;;;;5100366;28;20118;-68
2021/06/20 12:58:03;;;;;;;1.75;0.40;;;;;;;;;;5108255;28;20043;-68
2021/06/20 13:00:31;;;;;;;1.65;0.50;;;;;;;;;;5096337;28;20031;-68
2021/06/20 13:02:58;;;;;;;1.35;0.45;;;;;;;;;;5097849;28;20422;-68
2021/06/20 13:05:28;;;;;;;3.63;0.85;;;;;;;;;;5091308;28;20118;-68
2021/06/20 13:07:55;;;;;;;3.38;0.80;;;;;;;;;;5098550;28;20399;-66
2021/06/20 13:10:21;;;;;;;2.88;0.63;;;;;;;;;;5095512;28;20039;-69
2021/06/20 13:12:47;;;;;;;1.77;0.90;;;;;;;;;;5104372;28;20081;-68
2021/06/20 13:15:15;;;;;;;1.55;0.65;;;;;;;;;;5088780;28;20043;-68
2021/06/20 13:17:42;;;;;;;3.22;1.10;;;;;;;;;;5091526;28;20075;-67
2021/06/20 13:20:09;;;;;;;2.40;0.80;;;;;;;;;;5093868;28;20067;-68
2021/06/20 13:22:35;;;;;;;3.55;0.90;;;;;;;;;;5102543;28;20032;-68
2021/06/20 13:25:01;;;;;;;1.90;0.82;;;;;;;;;;5104174;28;20212;-68
2021/06/20 13:27:27;;;;;;;3.08;0.82;;;;;;;;;;5088440;28;20043;-68
2021/06/20 13:29:53;;;;;;;2.58;1.05;;;;;;;;;;5095853;28;20040;-68
2021/06/20 13:32:20;;;;;;;3.67;1.08;;;;;;;;;;5095780;28;20043;-68
2021/06/20 13:34:47;;;;;;;4.30;1.63;;;;;;;;;;5096427;28;20071;-68
2021/06/20 13:37:13;;;;;;;3.60;1.23;;;;;;;;;;5089596;28;20040;-68
2021/06/20 13:39:40;;;;;;;3.65;1.10;;;;;;;;;;5101451;28;20066;-68
2021/06/20 13:42:07;;;;;;;4.03;1.10;;;;;;;;;;5091558;28;20032;-68
2021/06/20 13:44:33;;;;;;;4.63;1.20;;;;;;;;;;5091711;28;20043;-68
2021/06/20 13:47:00;;;;;;;4.00;1.30;;;;;;;;;;5088778;28;20484;-68
2021/06/20 13:49:26;;;;;;;5.47;1.40;;;;;;;;;;5095250;28;20214;-68
2021/06/20 13:51:53;;;;;;;3.25;1.20;;;;;;;;;;5086918;28;20035;-68
2021/06/20 13:54:20;;;;;;;5.57;1.20;;;;;;;;;;5095502;28;20046;-67
2021/06/20 13:56:49;;;;;;;3.25;1.30;;;;;;;;;;5091814;28;20329;-66
2021/06/20 13:59:16;;;;;;;3.33;1.45;;;;;;;;;;5103623;28;20096;-66
2021/06/20 14:01:42;;;;;;;5.15;1.35;;;;;;;;;;5084342;28;20040;-66
2021/06/20 14:04:08;;;;;;;2.72;1.60;;;;;;;;;;5095471;28;20545;-66
2021/06/20 14:06:34;;;;;;;3.47;1.38;;;;;;;;;;5093955;28;20062;-67
2021/06/20 14:09:02;;;;;;;10.40;8.75;;;;;;;;;;5088863;28;20454;-67
2021/06/20 14:11:29;;;;;;;8.73;7.45;;;;;;;;;;5092272;28;20071;-67
2021/06/20 14:13:55;;;;;;;4.72;2.58;;;;;;;;;;5095134;28;20113;-67
2021/06/20 14:16:22;;;;;;;4.15;1.95;;;;;;;;;;5097515;28;20047;-67
2021/06/20 14:18:48;;;;;;;6.07;1.95;;;;;;;;;;5087738;28;20036;-68
2021/06/20 14:21:14;;;;;;;2.78;1.48;;;;;;;;;;5093532;28;20043;-67
2021/06/20 14:23:40;;;;;;;5.38;2.00;;;;;;;;;;5089137;28;20052;-67
2021/06/20 14:26:06;;;;;;;4.38;2.00;;;;;;;;;;5096158;28;20035;-67
2021/06/20 14:28:32;;;;;;;3.70;1.70;;;;;;;;;;5091200;28;20380;-67